sensor_id;sensor_type;location;lat;lon;timestamp;P1;durP1;ratioP1;P2;durP2;ratioP2
20870;SDS011;10595;51.218;3.452;2022-09-23T00:00:01;16.13;;;11.03;;
20870;SDS011;10595;51.218;3.452;2022-09-23T00:02:27;17.53;;;12.50;;
20870;SDS011;10595;51.218;3.452;2022-09-23T00:04:53;15.97;;;11.77;;
20870;SDS011;10595;51.218;3.452;2022-09-23T00:07:19;18.53;;;12.73;;
20870;SDS011;10595;51.218;3.452;2022-09-23T00:09:45;17.77;;;12.43;;
20870;SDS011;10595;51.218;3.452;2022-09-23T00:12:11;16.30;;;11.33;;
20870;SDS011;10595;51.218;3.452;2022-09-23T00:14:37;17.27;;;12.37;;
20870;SDS011;10595;51.218;3.452;2022-09-23T00:17:04;17.33;;;12.07;;
20870;SDS011;10595;51.218;3.452;2022-09-23T00:19:30;16.60;;;12.40;;
20870;SDS011;10595;51.218;3.452;2022-09-23T00:21:56;19.60;;;13.30;;
20870;SDS011;10595;51.218;3.452;2022-09-23T00:24:22;18.03;;;12.93;;
20870;SDS011;10595;51.218;3.452;2022-09-23T00:26:48;16.83;;;12.10;;
20870;SDS011;10595;51.218;3.452;2022-09-23T00:29:14;14.83;;;11.87;;
20870;SDS011;10595;51.218;3.452;2022-09-23T00:31:41;19.33;;;12.63;;
20870;SDS011;10595;51.218;3.452;2022-09-23T00:34:08;17.17;;;12.73;;
20870;SDS011;10595;51.218;3.452;2022-09-23T00:36:35;15.80;;;11.93;;
20870;SDS011;10595;51.218;3.452;2022-09-23T00:39:01;17.87;;;11.80;;
20870;SDS011;10595;51.218;3.452;2022-09-23T00:41:28;17.13;;;12.23;;
20870;SDS011;10595;51.218;3.452;2022-09-23T00:43:56;18.57;;;13.13;;
20870;SDS011;10595;51.218;3.452;2022-09-23T00:46:24;17.77;;;13.30;;
20870;SDS011;10595;51.218;3.452;2022-09-23T00:48:54;18.90;;;12.60;;
20870;SDS011;10595;51.218;3.452;2022-09-23T00:51:22;19.53;;;11.77;;
20870;SDS011;10595;51.218;3.452;2022-09-23T00:53:49;16.33;;;12.77;;
20870;SDS011;10595;51.218;3.452;2022-09-23T00:56:16;15.53;;;11.90;;
20870;SDS011;10595;51.218;3.452;2022-09-23T00:58:43;14.43;;;12.37;;
20870;SDS011;10595;51.218;3.452;2022-09-23T01:01:10;21.70;;;14.90;;
20870;SDS011;10595;51.218;3.452;2022-09-23T01:03:38;17.60;;;13.13;;
20870;SDS011;10595;51.218;3.452;2022-09-23T01:06:05;17.10;;;12.27;;
20870;SDS011;10595;51.218;3.452;2022-09-23T01:08:31;15.77;;;13.07;;
20870;SDS011;10595;51.218;3.452;2022-09-23T01:13:48;16.57;;;12.23;;
20870;SDS011;10595;51.218;3.452;2022-09-23T01:21:23;14.20;;;11.43;;
20870;SDS011;10595;51.218;3.452;2022-09-23T01:34:32;17.87;;;13.17;;
20870;SDS011;10595;51.218;3.452;2022-09-23T01:37:02;15.33;;;12.47;;
20870;SDS011;10595;51.218;3.452;2022-09-23T01:39:33;18.30;;;13.10;;
20870;SDS011;10595;51.218;3.452;2022-09-23T01:44:31;16.83;;;12.43;;
20870;SDS011;10595;51.218;3.452;2022-09-23T01:47:07;18.87;;;12.40;;
20870;SDS011;10595;51.218;3.452;2022-09-23T01:52:30;18.17;;;12.43;;
20870;SDS011;10595;51.218;3.452;2022-09-23T01:55:03;17.80;;;12.80;;
20870;SDS011;10595;51.218;3.452;2022-09-23T01:57:54;19.60;;;12.93;;
20870;SDS011;10595;51.218;3.452;2022-09-23T02:00:18;18.53;;;12.77;;
20870;SDS011;10595;51.218;3.452;2022-09-23T02:02:51;19.87;;;13.03;;
20870;SDS011;10595;51.218;3.452;2022-09-23T02:05:42;18.53;;;12.40;;
20870;SDS011;10595;51.218;3.452;2022-09-23T02:08:07;16.77;;;12.13;;
20870;SDS011;10595;51.218;3.452;2022-09-23T02:10:51;14.97;;;12.57;;
20870;SDS011;10595;51.218;3.452;2022-09-23T02:13:55;20.90;;;13.87;;
20870;SDS011;10595;51.218;3.452;2022-09-23T02:18:53;16.27;;;12.23;;
20870;SDS011;10595;51.218;3.452;2022-09-23T02:21:22;14.90;;;12.17;;
20870;SDS011;10595;51.218;3.452;2022-09-23T02:23:54;19.53;;;11.90;;
20870;SDS011;10595;51.218;3.452;2022-09-23T02:26:29;17.07;;;12.40;;
20870;SDS011;10595;51.218;3.452;2022-09-23T02:33:53;16.30;;;12.83;;
20870;SDS011;10595;51.218;3.452;2022-09-23T02:36:28;16.83;;;12.60;;
20870;SDS011;10595;51.218;3.452;2022-09-23T02:38:57;18.77;;;13.53;;
20870;SDS011;10595;51.218;3.452;2022-09-23T02:46:29;24.03;;;15.00;;
20870;SDS011;10595;51.218;3.452;2022-09-23T02:48:57;18.07;;;14.43;;
20870;SDS011;10595;51.218;3.452;2022-09-23T02:51:26;24.67;;;15.23;;
20870;SDS011;10595;51.218;3.452;2022-09-23T02:53:55;20.83;;;14.57;;
20870;SDS011;10595;51.218;3.452;2022-09-23T02:56:22;19.00;;;15.03;;
20870;SDS011;10595;51.218;3.452;2022-09-23T02:58:49;21.17;;;13.80;;
20870;SDS011;10595;51.218;3.452;2022-09-23T03:03:44;17.17;;;12.80;;
20870;SDS011;10595;51.218;3.452;2022-09-23T03:06:26;16.53;;;12.83;;
20870;SDS011;10595;51.218;3.452;2022-09-23T03:08:56;16.73;;;13.87;;
20870;SDS011;10595;51.218;3.452;2022-09-23T03:11:24;17.20;;;13.00;;
20870;SDS011;10595;51.218;3.452;2022-09-23T03:21:28;17.27;;;14.37;;
20870;SDS011;10595;51.218;3.452;2022-09-23T03:23:57;18.63;;;13.73;;
20870;SDS011;10595;51.218;3.452;2022-09-23T03:26:28;17.90;;;13.53;;
20870;SDS011;10595;51.218;3.452;2022-09-23T03:28:55;21.60;;;13.27;;
20870;SDS011;10595;51.218;3.452;2022-09-23T03:31:21;17.70;;;13.63;;
20870;SDS011;10595;51.218;3.452;2022-09-23T03:33:49;18.20;;;13.53;;
20870;SDS011;10595;51.218;3.452;2022-09-23T03:36:17;21.37;;;14.40;;
20870;SDS011;10595;51.218;3.452;2022-09-23T03:39:07;17.13;;;14.13;;
20870;SDS011;10595;51.218;3.452;2022-09-23T03:41:35;19.47;;;14.47;;
20870;SDS011;10595;51.218;3.452;2022-09-23T03:44:02;18.10;;;13.63;;
20870;SDS011;10595;51.218;3.452;2022-09-23T03:46:29;15.97;;;13.33;;
20870;SDS011;10595;51.218;3.452;2022-09-23T03:49:32;17.60;;;13.10;;
20870;SDS011;10595;51.218;3.452;2022-09-23T03:51:51;22.87;;;15.17;;
20870;SDS011;10595;51.218;3.452;2022-09-23T03:54:17;20.27;;;14.87;;
20870;SDS011;10595;51.218;3.452;2022-09-23T03:56:44;20.50;;;15.40;;
20870;SDS011;10595;51.218;3.452;2022-09-23T03:59:11;16.03;;;13.50;;
20870;SDS011;10595;51.218;3.452;2022-09-23T04:01:39;16.67;;;13.23;;
20870;SDS011;10595;51.218;3.452;2022-09-23T04:04:05;16.57;;;13.60;;
20870;SDS011;10595;51.218;3.452;2022-09-23T04:06:32;19.63;;;13.60;;
20870;SDS011;10595;51.218;3.452;2022-09-23T04:08:58;17.73;;;13.50;;
20870;SDS011;10595;51.218;3.452;2022-09-23T04:11:25;21.47;;;14.73;;
20870;SDS011;10595;51.218;3.452;2022-09-23T04:13:51;16.93;;;12.97;;
20870;SDS011;10595;51.218;3.452;2022-09-23T04:16:17;18.87;;;12.93;;
20870;SDS011;10595;51.218;3.452;2022-09-23T04:18:43;22.87;;;14.67;;
20870;SDS011;10595;51.218;3.452;2022-09-23T04:21:09;22.07;;;13.83;;
20870;SDS011;10595;51.218;3.452;2022-09-23T04:23:35;17.60;;;13.60;;
20870;SDS011;10595;51.218;3.452;2022-09-23T04:26:02;19.67;;;13.67;;
20870;SDS011;10595;51.218;3.452;2022-09-23T04:28:29;17.23;;;13.40;;
20870;SDS011;10595;51.218;3.452;2022-09-23T04:30:55;21.27;;;13.53;;
20870;SDS011;10595;51.218;3.452;2022-09-23T04:33:22;16.63;;;13.07;;
20870;SDS011;10595;51.218;3.452;2022-09-23T04:35:51;17.80;;;12.47;;
20870;SDS011;10595;51.218;3.452;2022-09-23T04:38:17;19.77;;;13.50;;
20870;SDS011;10595;51.218;3.452;2022-09-23T04:40:44;18.73;;;13.37;;
20870;SDS011;10595;51.218;3.452;2022-09-23T04:43:10;20.57;;;13.17;;
20870;SDS011;10595;51.218;3.452;2022-09-23T04:45:37;19.03;;;12.03;;
20870;SDS011;10595;51.218;3.452;2022-09-23T04:48:03;16.40;;;11.60;;
20870;SDS011;10595;51.218;3.452;2022-09-23T04:50:30;20.30;;;13.40;;
20870;SDS011;10595;51.218;3.452;2022-09-23T04:52:57;14.53;;;12.00;;
20870;SDS011;10595;51.218;3.452;2022-09-23T04:55:23;16.47;;;11.30;;
20870;SDS011;10595;51.218;3.452;2022-09-23T04:57:49;16.07;;;12.17;;
20870;SDS011;10595;51.218;3.452;2022-09-23T05:00:16;15.57;;;12.00;;
20870;SDS011;10595;51.218;3.452;2022-09-23T05:02:45;14.87;;;11.00;;
20870;SDS011;10595;51.218;3.452;2022-09-23T05:05:12;19.17;;;11.87;;
20870;SDS011;10595;51.218;3.452;2022-09-23T05:07:38;15.60;;;11.53;;
20870;SDS011;10595;51.218;3.452;2022-09-23T05:10:05;16.50;;;12.37;;
20870;SDS011;10595;51.218;3.452;2022-09-23T05:12:31;18.33;;;12.50;;
20870;SDS011;10595;51.218;3.452;2022-09-23T05:14:58;17.63;;;11.40;;
20870;SDS011;10595;51.218;3.452;2022-09-23T05:17:24;19.33;;;12.27;;
20870;SDS011;10595;51.218;3.452;2022-09-23T05:19:50;18.17;;;12.03;;
20870;SDS011;10595;51.218;3.452;2022-09-23T05:22:16;13.50;;;10.73;;
20870;SDS011;10595;51.218;3.452;2022-09-23T05:24:42;16.50;;;12.43;;
20870;SDS011;10595;51.218;3.452;2022-09-23T05:27:08;15.77;;;11.80;;
20870;SDS011;10595;51.218;3.452;2022-09-23T05:29:34;16.43;;;11.13;;
20870;SDS011;10595;51.218;3.452;2022-09-23T05:32:00;21.07;;;11.97;;
20870;SDS011;10595;51.218;3.452;2022-09-23T05:34:26;19.50;;;12.03;;
20870;SDS011;10595;51.218;3.452;2022-09-23T05:36:52;21.23;;;12.97;;
20870;SDS011;10595;51.218;3.452;2022-09-23T05:39:18;17.47;;;11.87;;
20870;SDS011;10595;51.218;3.452;2022-09-23T05:41:44;17.63;;;12.07;;
20870;SDS011;10595;51.218;3.452;2022-09-23T05:44:10;18.33;;;11.93;;
20870;SDS011;10595;51.218;3.452;2022-09-23T05:46:36;17.10;;;11.27;;
20870;SDS011;10595;51.218;3.452;2022-09-23T05:49:03;19.30;;;12.07;;
20870;SDS011;10595;51.218;3.452;2022-09-23T05:51:30;14.97;;;11.87;;
20870;SDS011;10595;51.218;3.452;2022-09-23T05:53:56;17.70;;;11.80;;
20870;SDS011;10595;51.218;3.452;2022-09-23T05:56:23;17.73;;;12.40;;
20870;SDS011;10595;51.218;3.452;2022-09-23T05:58:50;17.77;;;11.47;;
20870;SDS011;10595;51.218;3.452;2022-09-23T06:01:17;16.27;;;11.53;;
20870;SDS011;10595;51.218;3.452;2022-09-23T06:03:49;17.77;;;12.83;;
20870;SDS011;10595;51.218;3.452;2022-09-23T06:06:16;20.53;;;11.50;;
20870;SDS011;10595;51.218;3.452;2022-09-23T06:08:43;17.47;;;11.83;;
20870;SDS011;10595;51.218;3.452;2022-09-23T06:11:09;16.63;;;11.70;;
20870;SDS011;10595;51.218;3.452;2022-09-23T06:13:36;15.50;;;11.40;;
20870;SDS011;10595;51.218;3.452;2022-09-23T06:16:06;17.03;;;11.57;;
20870;SDS011;10595;51.218;3.452;2022-09-23T06:18:33;17.97;;;12.40;;
20870;SDS011;10595;51.218;3.452;2022-09-23T06:21:00;15.97;;;11.03;;
20870;SDS011;10595;51.218;3.452;2022-09-23T06:23:27;16.13;;;11.67;;
20870;SDS011;10595;51.218;3.452;2022-09-23T06:25:53;15.23;;;12.03;;
20870;SDS011;10595;51.218;3.452;2022-09-23T06:28:19;16.63;;;11.93;;
20870;SDS011;10595;51.218;3.452;2022-09-23T06:30:45;18.07;;;11.30;;
20870;SDS011;10595;51.218;3.452;2022-09-23T06:33:11;18.27;;;10.80;;
20870;SDS011;10595;51.218;3.452;2022-09-23T06:35:39;15.03;;;11.07;;
20870;SDS011;10595;51.218;3.452;2022-09-23T06:38:05;17.13;;;11.07;;
20870;SDS011;10595;51.218;3.452;2022-09-23T06:40:31;15.20;;;10.40;;
20870;SDS011;10595;51.218;3.452;2022-09-23T06:42:58;18.40;;;10.80;;
20870;SDS011;10595;51.218;3.452;2022-09-23T06:45:24;17.63;;;11.87;;
20870;SDS011;10595;51.218;3.452;2022-09-23T06:47:54;15.50;;;11.10;;
20870;SDS011;10595;51.218;3.452;2022-09-23T06:50:21;15.47;;;10.83;;
20870;SDS011;10595;51.218;3.452;2022-09-23T06:52:51;15.83;;;10.53;;
20870;SDS011;10595;51.218;3.452;2022-09-23T06:55:19;15.80;;;11.27;;
20870;SDS011;10595;51.218;3.452;2022-09-23T06:57:46;17.03;;;10.53;;
20870;SDS011;10595;51.218;3.452;2022-09-23T07:00:12;17.03;;;10.27;;
20870;SDS011;10595;51.218;3.452;2022-09-23T07:02:39;15.90;;;10.53;;
20870;SDS011;10595;51.218;3.452;2022-09-23T07:05:06;15.80;;;10.73;;
20870;SDS011;10595;51.218;3.452;2022-09-23T07:07:33;16.57;;;10.97;;
20870;SDS011;10595;51.218;3.452;2022-09-23T07:10:01;17.10;;;10.60;;
20870;SDS011;10595;51.218;3.452;2022-09-23T07:12:28;12.00;;;9.90;;
20870;SDS011;10595;51.218;3.452;2022-09-23T07:14:54;18.73;;;10.60;;
20870;SDS011;10595;51.218;3.452;2022-09-23T07:17:21;20.70;;;10.87;;
20870;SDS011;10595;51.218;3.452;2022-09-23T07:19:48;34.67;;;11.57;;
20870;SDS011;10595;51.218;3.452;2022-09-23T07:22:16;23.97;;;10.70;;
20870;SDS011;10595;51.218;3.452;2022-09-23T07:24:42;12.40;;;10.00;;
20870;SDS011;10595;51.218;3.452;2022-09-23T07:27:10;16.17;;;10.43;;
20870;SDS011;10595;51.218;3.452;2022-09-23T07:29:38;13.87;;;10.47;;
20870;SDS011;10595;51.218;3.452;2022-09-23T07:32:04;16.47;;;10.57;;
20870;SDS011;10595;51.218;3.452;2022-09-23T07:34:30;17.53;;;10.33;;
20870;SDS011;10595;51.218;3.452;2022-09-23T07:36:56;20.87;;;10.63;;
20870;SDS011;10595;51.218;3.452;2022-09-23T07:39:22;14.07;;;9.67;;
20870;SDS011;10595;51.218;3.452;2022-09-23T07:41:48;17.70;;;10.33;;
20870;SDS011;10595;51.218;3.452;2022-09-23T07:44:16;14.57;;;9.17;;
20870;SDS011;10595;51.218;3.452;2022-09-23T07:46:43;18.90;;;10.97;;
20870;SDS011;10595;51.218;3.452;2022-09-23T07:49:09;21.93;;;10.90;;
20870;SDS011;10595;51.218;3.452;2022-09-23T07:51:36;16.97;;;10.13;;
20870;SDS011;10595;51.218;3.452;2022-09-23T07:54:03;14.43;;;10.07;;
20870;SDS011;10595;51.218;3.452;2022-09-23T07:56:31;15.37;;;9.73;;
20870;SDS011;10595;51.218;3.452;2022-09-23T07:58:59;12.60;;;8.93;;
20870;SDS011;10595;51.218;3.452;2022-09-23T08:01:29;13.37;;;9.63;;
20870;SDS011;10595;51.218;3.452;2022-09-23T08:03:56;12.03;;;9.83;;
20870;SDS011;10595;51.218;3.452;2022-09-23T08:06:22;12.50;;;9.17;;
20870;SDS011;10595;51.218;3.452;2022-09-23T08:08:48;13.90;;;9.40;;
20870;SDS011;10595;51.218;3.452;2022-09-23T08:11:15;17.10;;;9.23;;
20870;SDS011;10595;51.218;3.452;2022-09-23T08:13:41;12.30;;;9.00;;
20870;SDS011;10595;51.218;3.452;2022-09-23T08:16:07;13.40;;;9.23;;
20870;SDS011;10595;51.218;3.452;2022-09-23T08:18:33;12.20;;;8.73;;
20870;SDS011;10595;51.218;3.452;2022-09-23T08:21:00;10.63;;;9.00;;
20870;SDS011;10595;51.218;3.452;2022-09-23T08:23:26;12.27;;;8.80;;
20870;SDS011;10595;51.218;3.452;2022-09-23T08:25:59;12.80;;;8.50;;
20870;SDS011;10595;51.218;3.452;2022-09-23T08:28:25;13.70;;;8.33;;
20870;SDS011;10595;51.218;3.452;2022-09-23T08:30:52;13.33;;;9.13;;
20870;SDS011;10595;51.218;3.452;2022-09-23T08:33:18;13.53;;;8.70;;
20870;SDS011;10595;51.218;3.452;2022-09-23T08:35:44;13.10;;;8.50;;
20870;SDS011;10595;51.218;3.452;2022-09-23T08:38:10;11.43;;;7.90;;
20870;SDS011;10595;51.218;3.452;2022-09-23T08:40:38;12.30;;;8.27;;
20870;SDS011;10595;51.218;3.452;2022-09-23T08:43:05;16.27;;;8.33;;
20870;SDS011;10595;51.218;3.452;2022-09-23T08:45:32;11.90;;;8.50;;
20870;SDS011;10595;51.218;3.452;2022-09-23T08:48:00;10.70;;;7.83;;
20870;SDS011;10595;51.218;3.452;2022-09-23T08:50:40;12.27;;;8.80;;
20870;SDS011;10595;51.218;3.452;2022-09-23T08:53:10;12.40;;;8.80;;
20870;SDS011;10595;51.218;3.452;2022-09-23T08:55:40;19.27;;;9.00;;
20870;SDS011;10595;51.218;3.452;2022-09-23T09:00:43;12.97;;;8.73;;
20870;SDS011;10595;51.218;3.452;2022-09-23T09:03:20;14.43;;;8.70;;
20870;SDS011;10595;51.218;3.452;2022-09-23T09:05:47;12.87;;;8.70;;
20870;SDS011;10595;51.218;3.452;2022-09-23T09:08:13;17.33;;;9.07;;
20870;SDS011;10595;51.218;3.452;2022-09-23T09:10:42;11.70;;;8.20;;
20870;SDS011;10595;51.218;3.452;2022-09-23T09:13:19;15.33;;;9.20;;
20870;SDS011;10595;51.218;3.452;2022-09-23T09:15:50;17.50;;;9.60;;
20870;SDS011;10595;51.218;3.452;2022-09-23T09:18:21;13.73;;;9.03;;
20870;SDS011;10595;51.218;3.452;2022-09-23T09:25:42;13.67;;;9.40;;
20870;SDS011;10595;51.218;3.452;2022-09-23T09:28:11;13.30;;;9.10;;
20870;SDS011;10595;51.218;3.452;2022-09-23T09:30:38;11.50;;;9.07;;
20870;SDS011;10595;51.218;3.452;2022-09-23T09:33:15;13.20;;;9.33;;
20870;SDS011;10595;51.218;3.452;2022-09-23T09:38:14;13.33;;;9.20;;
20870;SDS011;10595;51.218;3.452;2022-09-23T09:40:45;14.33;;;9.10;;
20870;SDS011;10595;51.218;3.452;2022-09-23T09:43:15;16.80;;;9.33;;
20870;SDS011;10595;51.218;3.452;2022-09-23T09:48:35;17.77;;;8.73;;
20870;SDS011;10595;51.218;3.452;2022-09-23T09:51:21;15.73;;;8.47;;
20870;SDS011;10595;51.218;3.452;2022-09-23T09:53:48;14.47;;;8.40;;
20870;SDS011;10595;51.218;3.452;2022-09-23T09:56:16;11.07;;;7.80;;
20870;SDS011;10595;51.218;3.452;2022-09-23T09:58:54;13.03;;;8.00;;
20870;SDS011;10595;51.218;3.452;2022-09-23T10:01:24;15.10;;;8.57;;
20870;SDS011;10595;51.218;3.452;2022-09-23T10:03:55;12.90;;;8.30;;
20870;SDS011;10595;51.218;3.452;2022-09-23T10:06:28;14.57;;;8.37;;
20870;SDS011;10595;51.218;3.452;2022-09-23T10:09:15;16.13;;;9.60;;
20870;SDS011;10595;51.218;3.452;2022-09-23T10:14:48;14.57;;;8.13;;
20870;SDS011;10595;51.218;3.452;2022-09-23T10:17:22;15.47;;;8.80;;
20870;SDS011;10595;51.218;3.452;2022-09-23T10:19:49;13.57;;;8.67;;
20870;SDS011;10595;51.218;3.452;2022-09-23T10:22:23;16.37;;;8.87;;
20870;SDS011;10595;51.218;3.452;2022-09-23T10:24:53;9.90;;;7.73;;
20870;SDS011;10595;51.218;3.452;2022-09-23T10:27:30;14.00;;;8.57;;
20870;SDS011;10595;51.218;3.452;2022-09-23T10:29:57;12.40;;;8.40;;
20870;SDS011;10595;51.218;3.452;2022-09-23T10:34:54;13.10;;;8.67;;
20870;SDS011;10595;51.218;3.452;2022-09-23T10:37:24;13.93;;;8.40;;
20870;SDS011;10595;51.218;3.452;2022-09-23T10:39:51;15.10;;;8.40;;
20870;SDS011;10595;51.218;3.452;2022-09-23T10:45:24;14.87;;;9.27;;
20870;SDS011;10595;51.218;3.452;2022-09-23T10:50:55;14.83;;;8.53;;
20870;SDS011;10595;51.218;3.452;2022-09-23T10:58:19;13.23;;;8.77;;
20870;SDS011;10595;51.218;3.452;2022-09-23T11:14:22;12.63;;;9.10;;
20870;SDS011;10595;51.218;3.452;2022-09-23T11:22:16;12.67;;;9.13;;
20870;SDS011;10595;51.218;3.452;2022-09-23T11:30:12;16.50;;;10.37;;
20870;SDS011;10595;51.218;3.452;2022-09-23T11:35:18;14.93;;;10.97;;
20870;SDS011;10595;51.218;3.452;2022-09-23T11:37:47;17.07;;;10.63;;
20870;SDS011;10595;51.218;3.452;2022-09-23T11:40:17;15.60;;;11.13;;
20870;SDS011;10595;51.218;3.452;2022-09-23T11:42:49;14.47;;;10.50;;
20870;SDS011;10595;51.218;3.452;2022-09-23T11:45:17;14.77;;;10.73;;
20870;SDS011;10595;51.218;3.452;2022-09-23T11:47:53;13.43;;;10.30;;
20870;SDS011;10595;51.218;3.452;2022-09-23T11:50:26;18.37;;;12.27;;
20870;SDS011;10595;51.218;3.452;2022-09-23T11:52:56;15.80;;;11.63;;
20870;SDS011;10595;51.218;3.452;2022-09-23T11:55:27;15.03;;;10.73;;
20870;SDS011;10595;51.218;3.452;2022-09-23T11:58:03;15.73;;;11.03;;
20870;SDS011;10595;51.218;3.452;2022-09-23T12:00:32;14.67;;;10.23;;
20870;SDS011;10595;51.218;3.452;2022-09-23T12:03:06;12.67;;;9.77;;
20870;SDS011;10595;51.218;3.452;2022-09-23T12:05:43;14.53;;;10.10;;
20870;SDS011;10595;51.218;3.452;2022-09-23T12:08:16;14.27;;;10.07;;
20870;SDS011;10595;51.218;3.452;2022-09-23T12:10:50;16.43;;;10.07;;
20870;SDS011;10595;51.218;3.452;2022-09-23T12:13:21;12.40;;;9.70;;
20870;SDS011;10595;51.218;3.452;2022-09-23T12:25:53;12.93;;;9.10;;
20870;SDS011;10595;51.218;3.452;2022-09-23T12:28:22;11.00;;;8.13;;
20870;SDS011;10595;51.218;3.452;2022-09-23T12:30:48;12.60;;;8.20;;
20870;SDS011;10595;51.218;3.452;2022-09-23T12:35:43;13.00;;;9.60;;
20870;SDS011;10595;51.218;3.452;2022-09-23T12:38:20;14.17;;;9.00;;
20870;SDS011;10595;51.218;3.452;2022-09-23T12:40:49;11.10;;;9.17;;
20870;SDS011;10595;51.218;3.452;2022-09-23T12:43:26;12.27;;;9.30;;
20870;SDS011;10595;51.218;3.452;2022-09-23T12:51:22;12.90;;;9.57;;
20870;SDS011;10595;51.218;3.452;2022-09-23T13:01:36;13.70;;;8.77;;
20870;SDS011;10595;51.218;3.452;2022-09-23T13:04:02;12.63;;;9.23;;
20870;SDS011;10595;51.218;3.452;2022-09-23T13:07:00;13.17;;;9.37;;
20870;SDS011;10595;51.218;3.452;2022-09-23T13:09:29;11.17;;;9.80;;
20870;SDS011;10595;51.218;3.452;2022-09-23T13:11:56;12.93;;;9.37;;
20870;SDS011;10595;51.218;3.452;2022-09-23T13:14:24;9.53;;;8.53;;
20870;SDS011;10595;51.218;3.452;2022-09-23T13:16:50;14.67;;;9.77;;
20870;SDS011;10595;51.218;3.452;2022-09-23T13:26:45;11.37;;;9.17;;
20870;SDS011;10595;51.218;3.452;2022-09-23T13:29:15;14.07;;;10.07;;
20870;SDS011;10595;51.218;3.452;2022-09-23T13:31:41;15.43;;;9.93;;
20870;SDS011;10595;51.218;3.452;2022-09-23T13:34:09;13.00;;;9.20;;
20870;SDS011;10595;51.218;3.452;2022-09-23T13:36:43;14.90;;;9.90;;
20870;SDS011;10595;51.218;3.452;2022-09-23T13:39:13;14.37;;;9.97;;
20870;SDS011;10595;51.218;3.452;2022-09-23T13:41:40;16.97;;;9.90;;
20870;SDS011;10595;51.218;3.452;2022-09-23T13:44:08;15.03;;;9.20;;
20870;SDS011;10595;51.218;3.452;2022-09-23T13:46:39;13.80;;;9.30;;
20870;SDS011;10595;51.218;3.452;2022-09-23T13:49:13;15.80;;;9.70;;
20870;SDS011;10595;51.218;3.452;2022-09-23T13:51:44;14.90;;;10.90;;
20870;SDS011;10595;51.218;3.452;2022-09-23T13:54:22;17.57;;;12.67;;
20870;SDS011;10595;51.218;3.452;2022-09-23T13:56:52;15.70;;;13.10;;
20870;SDS011;10595;51.218;3.452;2022-09-23T13:59:26;20.57;;;13.83;;
20870;SDS011;10595;51.218;3.452;2022-09-23T14:02:03;20.67;;;13.87;;
20870;SDS011;10595;51.218;3.452;2022-09-23T14:04:30;19.17;;;14.10;;
20870;SDS011;10595;51.218;3.452;2022-09-23T14:06:56;18.57;;;14.77;;
20870;SDS011;10595;51.218;3.452;2022-09-23T14:09:23;20.70;;;14.83;;
20870;SDS011;10595;51.218;3.452;2022-09-23T14:11:51;18.37;;;14.90;;
20870;SDS011;10595;51.218;3.452;2022-09-23T14:14:17;18.90;;;15.10;;
20870;SDS011;10595;51.218;3.452;2022-09-23T14:16:44;19.87;;;14.50;;
20870;SDS011;10595;51.218;3.452;2022-09-23T14:19:12;24.57;;;15.77;;
20870;SDS011;10595;51.218;3.452;2022-09-23T14:21:40;19.93;;;15.23;;
20870;SDS011;10595;51.218;3.452;2022-09-23T14:24:14;19.27;;;15.63;;
20870;SDS011;10595;51.218;3.452;2022-09-23T14:26:41;16.70;;;14.60;;
20870;SDS011;10595;51.218;3.452;2022-09-23T14:29:12;18.87;;;15.43;;
20870;SDS011;10595;51.218;3.452;2022-09-23T14:31:38;22.00;;;15.00;;
20870;SDS011;10595;51.218;3.452;2022-09-23T14:34:13;18.80;;;13.67;;
20870;SDS011;10595;51.218;3.452;2022-09-23T14:36:51;17.60;;;14.03;;
20870;SDS011;10595;51.218;3.452;2022-09-23T14:39:36;21.00;;;15.07;;
20870;SDS011;10595;51.218;3.452;2022-09-23T14:42:02;21.67;;;15.30;;
20870;SDS011;10595;51.218;3.452;2022-09-23T14:44:31;18.33;;;14.20;;
20870;SDS011;10595;51.218;3.452;2022-09-23T14:46:59;19.83;;;15.10;;
20870;SDS011;10595;51.218;3.452;2022-09-23T14:49:25;20.13;;;14.57;;
20870;SDS011;10595;51.218;3.452;2022-09-23T14:51:56;17.57;;;14.07;;
20870;SDS011;10595;51.218;3.452;2022-09-23T14:56:57;20.07;;;15.20;;
20870;SDS011;10595;51.218;3.452;2022-09-23T14:59:30;19.80;;;14.73;;
20870;SDS011;10595;51.218;3.452;2022-09-23T15:01:57;18.07;;;14.70;;
20870;SDS011;10595;51.218;3.452;2022-09-23T15:07:31;19.00;;;14.20;;
20870;SDS011;10595;51.218;3.452;2022-09-23T15:09:38;19.07;;;14.00;;
20870;SDS011;10595;51.218;3.452;2022-09-23T15:12:14;21.83;;;14.90;;
20870;SDS011;10595;51.218;3.452;2022-09-23T15:14:43;17.87;;;14.17;;
20870;SDS011;10595;51.218;3.452;2022-09-23T15:19:52;17.67;;;13.40;;
20870;SDS011;10595;51.218;3.452;2022-09-23T15:22:20;18.60;;;13.90;;
20870;SDS011;10595;51.218;3.452;2022-09-23T15:24:47;16.90;;;13.03;;
20870;SDS011;10595;51.218;3.452;2022-09-23T15:29:47;20.17;;;12.70;;
20870;SDS011;10595;51.218;3.452;2022-09-23T15:32:14;17.37;;;13.20;;
20870;SDS011;10595;51.218;3.452;2022-09-23T15:34:40;16.03;;;11.67;;
20870;SDS011;10595;51.218;3.452;2022-09-23T15:37:08;15.33;;;10.93;;
20870;SDS011;10595;51.218;3.452;2022-09-23T15:39:36;11.63;;;9.67;;
20870;SDS011;10595;51.218;3.452;2022-09-23T15:42:02;11.20;;;9.10;;
20870;SDS011;10595;51.218;3.452;2022-09-23T15:44:29;14.03;;;9.00;;
20870;SDS011;10595;51.218;3.452;2022-09-23T15:46:57;12.00;;;9.23;;
20870;SDS011;10595;51.218;3.452;2022-09-23T15:51:59;14.23;;;9.40;;
20870;SDS011;10595;51.218;3.452;2022-09-23T15:54:26;13.03;;;9.97;;
20870;SDS011;10595;51.218;3.452;2022-09-23T15:56:52;14.37;;;9.87;;
20870;SDS011;10595;51.218;3.452;2022-09-23T15:59:19;13.80;;;10.10;;
20870;SDS011;10595;51.218;3.452;2022-09-23T16:01:45;12.77;;;9.80;;
20870;SDS011;10595;51.218;3.452;2022-09-23T16:04:11;13.60;;;10.27;;
20870;SDS011;10595;51.218;3.452;2022-09-23T16:06:39;15.07;;;10.90;;
20870;SDS011;10595;51.218;3.452;2022-09-23T16:09:07;11.57;;;9.50;;
20870;SDS011;10595;51.218;3.452;2022-09-23T16:11:34;13.03;;;10.10;;
20870;SDS011;10595;51.218;3.452;2022-09-23T16:14:01;14.40;;;9.97;;
20870;SDS011;10595;51.218;3.452;2022-09-23T16:16:27;16.20;;;9.70;;
20870;SDS011;10595;51.218;3.452;2022-09-23T16:18:53;13.47;;;10.60;;
20870;SDS011;10595;51.218;3.452;2022-09-23T16:21:20;14.53;;;9.80;;
20870;SDS011;10595;51.218;3.452;2022-09-23T16:23:47;14.30;;;9.87;;
20870;SDS011;10595;51.218;3.452;2022-09-23T16:28:40;13.37;;;10.17;;
20870;SDS011;10595;51.218;3.452;2022-09-23T16:31:06;14.63;;;10.63;;
20870;SDS011;10595;51.218;3.452;2022-09-23T16:33:33;14.30;;;11.03;;
20870;SDS011;10595;51.218;3.452;2022-09-23T16:35:59;12.50;;;10.40;;
20870;SDS011;10595;51.218;3.452;2022-09-23T16:38:25;14.17;;;10.40;;
20870;SDS011;10595;51.218;3.452;2022-09-23T16:40:52;15.03;;;10.53;;
20870;SDS011;10595;51.218;3.452;2022-09-23T16:43:20;12.57;;;10.30;;
20870;SDS011;10595;51.218;3.452;2022-09-23T16:45:46;15.30;;;11.53;;
20870;SDS011;10595;51.218;3.452;2022-09-23T16:48:13;15.17;;;10.63;;
20870;SDS011;10595;51.218;3.452;2022-09-23T16:50:43;13.23;;;10.73;;
20870;SDS011;10595;51.218;3.452;2022-09-23T16:53:10;14.47;;;10.87;;
20870;SDS011;10595;51.218;3.452;2022-09-23T16:55:41;12.68;;;11.23;;
20870;SDS011;10595;51.218;3.452;2022-09-23T16:58:07;15.70;;;11.33;;
20870;SDS011;10595;51.218;3.452;2022-09-23T17:00:33;14.60;;;11.20;;
20870;SDS011;10595;51.218;3.452;2022-09-23T17:03:18;15.23;;;12.03;;
20870;SDS011;10595;51.218;3.452;2022-09-23T17:06:03;19.03;;;12.50;;